Time;durP1;ratioP1;P1;durP2;ratioP2;P2;SDS_P1;SDS_P2;PMS_P1;PMS_P2;Temp;Humidity;BMP_temperature;BMP_pressure;BME280_temperature;BME280_humidity;BME280_pressure;Samples;Min_cycle;Max_cycle;Signal;HPM_P1;HPM_P2
2022/03/27 00:04:39;;;;;;;0.20;0.10;;;12.50;99.90;;;;;;20767156;28;20206;-69
2022/03/27 00:14:45;;;;;;;0.20;0.10;;;12.40;99.90;;;;;;20798400;28;20230;-69
2022/03/27 00:24:48;;;;;;;0.20;0.10;;;12.10;99.90;;;;;;20784035;28;20265;-72
2022/03/27 00:34:54;;;;;;;0.20;0.10;;;12.10;99.90;;;;;;20837226;28;20226;-70
2022/03/27 00:44:57;;;;;;;0.20;0.10;;;12.00;99.90;;;;;;20836470;28;20195;-70
2022/03/27 00:55:03;;;;;;;0.20;0.10;;;12.20;99.90;;;;;;20814308;28;20227;-70
2022/03/27 01:05:11;;;;;;;0.20;0.10;;;12.20;99.90;;;;;;20812256;28;20221;-69
2022/03/27 01:15:27;;;;;;;0.20;0.10;;;12.30;99.90;;;;;;20811119;28;21215;-69
2022/03/27 01:25:32;;;;;;;0.20;0.10;;;12.40;99.90;;;;;;20832073;28;20304;-68
2022/03/27 01:35:37;;;;;;;0.20;0.10;;;12.20;99.90;;;;;;20889112;28;20225;-69
2022/03/27 01:45:42;;;;;;;0.20;0.10;;;12.10;99.90;;;;;;20971408;28;20484;-68
2022/03/27 01:55:46;;;;;;;0.20;0.10;;;12.10;99.90;;;;;;20969884;28;20225;-68
2022/03/27 02:05:52;;;;;;;0.20;0.10;;;12.10;99.90;;;;;;20971331;28;20677;-69
2022/03/27 02:15:57;;;;;;;0.20;0.10;;;12.10;99.90;;;;;;20951159;28;20260;-76
2022/03/27 02:26:03;;;;;;;0.20;0.10;;;12.30;99.90;;;;;;20943106;28;20226;-76
2022/03/27 02:36:08;;;;;;;0.20;0.10;;;12.40;99.90;;;;;;20881744;28;20235;-76
2022/03/27 02:46:13;;;;;;;0.20;0.10;;;12.50;99.90;;;;;;20784767;28;20198;-76
2022/03/27 02:56:17;;;;;;;0.20;0.10;;;13.10;99.90;;;;;;20802193;28;20499;-76
2022/03/27 03:06:24;;;;;;;0.20;0.10;;;13.20;99.90;;;;;;20801155;28;20203;-76
2022/03/27 03:16:29;;;;;;;0.20;0.20;;;13.20;99.90;;;;;;20800352;28;20230;-75
2022/03/27 03:26:34;;;;;;;0.30;0.30;;;13.20;99.90;;;;;;20798255;28;20227;-76
2022/03/27 03:36:38;;;;;;;0.30;0.27;;;13.40;99.90;;;;;;20789285;28;20226;-75
2022/03/27 03:46:43;;;;;;;0.20;0.10;;;13.30;99.90;;;;;;20880223;28;20201;-75
2022/03/27 03:56:47;;;;;;;0.37;0.37;;;13.20;99.90;;;;;;20880803;28;20230;-75
2022/03/27 04:06:52;;;;;;;0.20;0.10;;;13.20;99.90;;;;;;20878199;28;20206;-73
2022/03/27 04:16:56;;;;;;;0.20;0.10;;;13.40;99.90;;;;;;20890794;28;20233;-76
2022/03/27 04:27:02;;;;;;;1.37;1.27;;;13.50;99.90;;;;;;20878545;28;20216;-76
2022/03/27 04:37:06;;;;;;;0.20;0.10;;;13.50;99.90;;;;;;20864307;28;20238;-77
2022/03/27 04:47:11;;;;;;;0.20;0.10;;;13.40;99.90;;;;;;20812268;28;20269;-76
2022/03/27 04:57:15;;;;;;;0.20;0.10;;;13.40;99.90;;;;;;20794936;28;20230;-77
2022/03/27 05:07:20;;;;;;;0.20;0.10;;;13.60;99.90;;;;;;20793215;28;20214;-75
2022/03/27 05:17:24;;;;;;;0.20;0.10;;;13.90;99.90;;;;;;20807414;28;20231;-68
2022/03/27 05:27:29;;;;;;;0.20;0.10;;;14.00;99.90;;;;;;20808354;28;20510;-68
2022/03/27 05:37:36;;;;;;;0.20;0.10;;;14.00;99.90;;;;;;20806339;28;20497;-75
2022/03/27 05:47:44;;;;;;;0.20;0.10;;;14.10;99.90;;;;;;20889257;28;20244;-76
2022/03/27 05:57:48;;;;;;;0.20;0.10;;;14.00;99.90;;;;;;20887658;28;20230;-76
2022/03/27 06:07:55;;;;;;;0.20;0.10;;;14.20;99.90;;;;;;20888437;28;20278;-68
2022/03/27 06:18:00;;;;;;;0.20;0.20;;;14.20;99.90;;;;;;20883569;28;20449;-68
2022/03/27 06:28:06;;;;;;;0.20;0.10;;;14.10;99.90;;;;;;20884453;28;20237;-69
2022/03/27 06:38:10;;;;;;;0.20;0.10;;;14.40;99.90;;;;;;20862233;28;20234;-69
2022/03/27 06:48:15;;;;;;;0.20;0.10;;;14.50;99.90;;;;;;20800235;28;20206;-74
2022/03/27 06:58:19;;;;;;;0.20;0.10;;;14.70;99.90;;;;;;20802144;28;20261;-76
2022/03/27 07:08:24;;;;;;;0.20;0.10;;;14.80;99.90;;;;;;20798164;28;20210;-76
2022/03/27 07:18:28;;;;;;;0.20;0.10;;;15.00;99.90;;;;;;20800422;28;20537;-77
2022/03/27 07:28:35;;;;;;;0.20;0.10;;;15.10;99.90;;;;;;20797162;28;20226;-75
2022/03/27 07:38:39;;;;;;;0.20;0.10;;;15.30;99.90;;;;;;20824688;28;20218;-78
2022/03/27 07:48:44;;;;;;;0.20;0.10;;;15.50;99.90;;;;;;20875860;28;20221;-78
2022/03/27 07:58:48;;;;;;;0.20;0.10;;;15.70;99.90;;;;;;20874451;28;20230;-78
2022/03/27 08:08:55;;;;;;;0.23;0.23;;;15.90;99.90;;;;;;20875019;28;20198;-74
2022/03/27 08:18:59;;;;;;;0.20;0.10;;;16.10;99.90;;;;;;20859109;28;20233;-77
2022/03/27 08:29:04;;;;;;;0.20;0.10;;;16.50;99.90;;;;;;20903138;28;20229;-77
2022/03/27 08:39:08;;;;;;;0.20;0.10;;;16.70;99.90;;;;;;20923255;28;20702;-63
2022/03/27 08:49:30;;;;;;;0.20;0.10;;;17.10;99.90;;;;;;20872607;28;20202;-65
2022/03/27 08:59:34;;;;;;;0.20;0.10;;;17.50;99.90;;;;;;20881350;28;20252;-64
2022/03/27 09:09:39;;;;;;;0.20;0.10;;;17.60;99.90;;;;;;20888270;28;20182;-64
2022/03/27 09:19:47;;;;;;;0.20;0.10;;;18.40;99.90;;;;;;20867880;28;20245;-64
2022/03/27 09:30:06;;;;;;;1.70;1.60;;;18.50;99.90;;;;;;20868774;28;20436;-64
2022/03/27 09:40:18;;;;;;;0.20;0.10;;;18.30;99.90;;;;;;20827463;28;20223;-65
2022/03/27 09:50:34;;;;;;;0.20;0.10;;;18.60;99.90;;;;;;20798971;28;20314;-64
2022/03/27 10:00:37;;;;;;;0.20;0.10;;;19.30;99.90;;;;;;20798243;28;20257;-63
2022/03/27 10:11:03;;;;;;;0.20;0.10;;;19.00;99.90;;;;;;20797636;28;20242;-78
2022/03/27 10:21:07;;;;;;;0.20;0.10;;;20.20;99.90;;;;;;20802357;28;20257;-78
2022/03/27 10:31:12;;;;;;;0.20;0.00;;;20.50;99.90;;;;;;20797204;28;20278;-68
2022/03/27 10:41:22;;;;;;;0.20;0.00;;;20.30;99.90;;;;;;20841895;28;20486;-68
2022/03/27 10:51:39;;;;;;;0.20;0.10;;;21.50;99.90;;;;;;20877207;28;20248;-69
2022/03/27 11:01:45;;;;;;;0.20;0.20;;;21.60;99.90;;;;;;20842611;28;20472;-69
2022/03/27 11:11:54;;;;;;;0.63;0.63;;;21.50;99.90;;;;;;20873755;28;20229;-68
2022/03/27 11:21:58;;;;;;;0.20;0.00;;;22.10;99.90;;;;;;20855182;28;20240;-64
2022/03/27 11:32:08;;;;;;;0.20;0.00;;;22.20;99.90;;;;;;20870279;28;20310;-64
2022/03/27 11:42:28;;;;;;;0.20;0.10;;;22.80;99.90;;;;;;20817103;28;20308;-63
2022/03/27 11:52:34;;;;;;;0.20;0.00;;;22.80;99.90;;;;;;20788622;28;20465;-65
2022/03/27 12:02:42;;;;;;;0.20;0.00;;;23.90;99.90;;;;;;20785997;28;20406;-66
2022/03/27 12:13:02;;;;;;;9.18;5.78;;;24.10;99.90;;;;;;20787553;28;20222;-65
2022/03/27 12:23:18;;;;;;;2.35;2.25;;;23.00;99.90;;;;;;20787813;28;20242;-65
2022/03/27 12:33:27;;;;;;;0.20;0.00;;;23.20;99.90;;;;;;20774652;28;20199;-63
2022/03/27 12:43:31;;;;;;;0.20;0.00;;;22.80;99.90;;;;;;20870358;28;20228;-64
2022/03/27 12:53:36;;;;;;;0.20;0.00;;;22.10;99.90;;;;;;20866229;28;20206;-64
2022/03/27 13:03:42;;;;;;;0.20;0.00;;;21.70;99.90;;;;;;20886428;28;20249;-63
2022/03/27 13:13:49;;;;;;;0.30;0.20;;;22.60;99.90;;;;;;20887447;28;20218;-62
2022/03/27 13:23:52;;;;;;;0.20;0.00;;;24.50;99.90;;;;;;20886266;28;20238;-66
2022/03/27 13:33:58;;;;;;;0.20;0.10;;;24.20;99.90;;;;;;20889895;28;20212;-64
2022/03/27 13:44:02;;;;;;;0.20;0.10;;;23.80;99.90;;;;;;20827505;28;20225;-63
2022/03/27 13:54:07;;;;;;;0.20;0.10;;;22.80;99.90;;;;;;20794644;28;20205;-64
2022/03/27 14:04:12;;;;;;;0.20;0.00;;;22.30;99.90;;;;;;20801272;28;20234;-64
2022/03/27 14:14:18;;;;;;;0.20;0.00;;;23.30;99.90;;;;;;20800553;28;20242;-63
2022/03/27 14:24:21;;;;;;;0.20;0.00;;;23.60;99.90;;;;;;20789095;28;20235;-64
2022/03/27 14:34:27;;;;;;;0.20;0.05;;;22.60;99.90;;;;;;20802687;28;20190;-63
2022/03/27 14:44:31;;;;;;;0.20;0.00;;;23.00;99.90;;;;;;20855823;28;20321;-64
2022/03/27 15:04:58;;;;;;;0.20;0.00;;;22.90;99.90;;;;;;20866252;28;20253;-63
2022/03/27 15:15:03;;;;;;;0.20;0.20;;;24.00;99.90;;;;;;20861366;28;20237;-63
2022/03/27 15:25:09;;;;;;;1.55;1.45;;;24.10;99.90;;;;;;20875043;28;20249;-64
2022/03/27 15:35:15;;;;;;;0.20;0.10;;;24.40;99.90;;;;;;20873868;28;20213;-64
2022/03/27 15:45:20;;;;;;;0.20;0.00;;;23.80;99.90;;;;;;20788810;28;20237;-62
2022/03/27 15:55:25;;;;;;;0.20;0.10;;;23.20;99.90;;;;;;20788163;28;20199;-65
2022/03/27 16:05:28;;;;;;;0.20;0.00;;;21.80;99.90;;;;;;20774119;28;20250;-64
2022/03/27 16:15:34;;;;;;;1.30;1.30;;;22.10;99.90;;;;;;20777484;28;20214;-64
2022/03/27 16:25:39;;;;;;;0.30;0.30;;;21.90;99.90;;;;;;20811839;28;20248;-65
2022/03/27 16:35:45;;;;;;;0.20;0.10;;;21.40;99.90;;;;;;20827337;28;20211;-66
2022/03/27 16:45:54;;;;;;;2.57;2.37;;;21.50;99.90;;;;;;20854115;28;20416;-66
2022/03/27 16:55:59;;;;;;;0.20;0.10;;;20.10;99.90;;;;;;20844116;28;20195;-66
2022/03/27 17:06:04;;;;;;;0.20;0.10;;;19.40;99.90;;;;;;20870651;28;20473;-65
2022/03/27 17:16:11;;;;;;;0.20;0.10;;;18.70;99.90;;;;;;20868831;28;20230;-66
2022/03/27 17:26:15;;;;;;;0.20;0.10;;;18.50;99.90;;;;;;20883343;28;20232;-70
2022/03/27 17:36:20;;;;;;;0.20;0.10;;;18.00;99.90;;;;;;20883823;28;20206;-70
2022/03/27 17:46:24;;;;;;;0.20;0.10;;;17.50;99.90;;;;;;20884329;28;20237;-77
2022/03/27 17:56:29;;;;;;;0.20;0.10;;;16.90;99.90;;;;;;20864926;28;20198;-80
2022/03/27 18:06:33;;;;;;;0.20;0.10;;;16.70;99.90;;;;;;20866239;28;20230;-79
2022/03/27 18:16:40;;;;;;;0.20;0.10;;;16.40;99.90;;;;;;20881803;28;20419;-77
2022/03/27 18:26:45;;;;;;;0.20;0.10;;;16.20;99.90;;;;;;20881165;28;20246;-78
2022/03/27 18:36:53;;;;;;;0.20;0.10;;;16.20;99.90;;;;;;20853622;28;20263;-79
2022/03/27 18:46:57;;;;;;;0.20;0.03;;;16.00;99.90;;;;;;20781739;28;20234;-76
2022/03/27 18:57:04;;;;;;;0.20;0.10;;;15.70;99.90;;;;;;20782968;28;20198;-77
2022/03/27 19:07:11;;;;;;;0.20;0.10;;;15.40;99.90;;;;;;20777714;28;20245;-78
2022/03/27 19:17:48;;;;;;;0.20;0.10;;;15.10;99.90;;;;;;20832808;28;20222;-78
2022/03/27 19:27:52;;;;;;;0.20;0.10;;;14.60;99.90;;;;;;20861277;28;20483;-75
2022/03/27 19:37:58;;;;;;;0.20;0.13;;;14.70;99.90;;;;;;20860080;28;20214;-78
2022/03/27 19:48:04;;;;;;;0.20;0.10;;;14.20;99.90;;;;;;20781751;28;20221;-79
